sensor_id;sensor_type;location;lat;lon;timestamp;P1;durP1;ratioP1;P2;durP2;ratioP2
51459;SDS011;37534;39.772;2.718;2023-11-21T00:02:40;20.67;;;18.52;;
51459;SDS011;37534;39.772;2.718;2023-11-21T00:05:09;26.67;;;20.98;;
51459;SDS011;37534;39.772;2.718;2023-11-21T00:07:36;39.55;;;23.10;;
51459;SDS011;37534;39.772;2.718;2023-11-21T00:10:03;26.35;;;20.67;;
51459;SDS011;37534;39.772;2.718;2023-11-21T00:12:30;29.42;;;20.58;;
51459;SDS011;37534;39.772;2.718;2023-11-21T00:14:56;28.23;;;19.60;;
51459;SDS011;37534;39.772;2.718;2023-11-21T00:17:22;23.92;;;18.85;;
51459;SDS011;37534;39.772;2.718;2023-11-21T00:19:49;21.35;;;19.15;;
51459;SDS011;37534;39.772;2.718;2023-11-21T00:22:17;20.98;;;17.95;;
51459;SDS011;37534;39.772;2.718;2023-11-21T00:24:42;25.50;;;17.77;;
51459;SDS011;37534;39.772;2.718;2023-11-21T00:27:08;22.50;;;17.40;;
51459;SDS011;37534;39.772;2.718;2023-11-21T00:29:34;20.30;;;15.73;;
51459;SDS011;37534;39.772;2.718;2023-11-21T00:32:00;18.63;;;15.63;;
51459;SDS011;37534;39.772;2.718;2023-11-21T00:34:28;20.45;;;16.20;;
51459;SDS011;37534;39.772;2.718;2023-11-21T00:36:54;14.90;;;13.38;;
51459;SDS011;37534;39.772;2.718;2023-11-21T00:39:30;14.50;;;12.85;;
51459;SDS011;37534;39.772;2.718;2023-11-21T00:42:00;13.70;;;11.73;;
51459;SDS011;37534;39.772;2.718;2023-11-21T00:44:26;14.80;;;11.77;;
51459;SDS011;37534;39.772;2.718;2023-11-21T00:46:55;10.55;;;9.55;;
51459;SDS011;37534;39.772;2.718;2023-11-21T00:52:22;12.07;;;10.85;;
51459;SDS011;37534;39.772;2.718;2023-11-21T00:54:58;10.43;;;9.35;;
51459;SDS011;37534;39.772;2.718;2023-11-21T00:57:25;12.15;;;10.90;;
51459;SDS011;37534;39.772;2.718;2023-11-21T00:59:51;12.63;;;10.68;;
51459;SDS011;37534;39.772;2.718;2023-11-21T01:02:18;9.75;;;8.85;;
51459;SDS011;37534;39.772;2.718;2023-11-21T01:04:43;10.43;;;9.40;;
51459;SDS011;37534;39.772;2.718;2023-11-21T01:07:09;10.18;;;8.75;;
51459;SDS011;37534;39.772;2.718;2023-11-21T01:09:35;9.88;;;8.35;;
51459;SDS011;37534;39.772;2.718;2023-11-21T01:12:00;11.70;;;9.10;;
51459;SDS011;37534;39.772;2.718;2023-11-21T01:14:26;9.75;;;8.80;;
51459;SDS011;37534;39.772;2.718;2023-11-21T01:16:52;9.00;;;7.80;;
51459;SDS011;37534;39.772;2.718;2023-11-21T01:19:18;10.52;;;6.68;;
51459;SDS011;37534;39.772;2.718;2023-11-21T01:21:44;7.03;;;6.38;;
51459;SDS011;37534;39.772;2.718;2023-11-21T01:24:09;9.05;;;5.78;;
51459;SDS011;37534;39.772;2.718;2023-11-21T01:26:35;7.28;;;5.78;;
51459;SDS011;37534;39.772;2.718;2023-11-21T01:29:01;7.18;;;6.32;;
51459;SDS011;37534;39.772;2.718;2023-11-21T01:31:29;5.22;;;4.75;;
51459;SDS011;37534;39.772;2.718;2023-11-21T01:33:55;9.88;;;5.40;;
51459;SDS011;37534;39.772;2.718;2023-11-21T01:36:29;6.22;;;5.63;;
51459;SDS011;37534;39.772;2.718;2023-11-21T01:38:57;13.45;;;7.10;;
51459;SDS011;37534;39.772;2.718;2023-11-21T01:41:27;8.57;;;7.63;;
51459;SDS011;37534;39.772;2.718;2023-11-21T01:43:55;13.27;;;6.90;;
51459;SDS011;37534;39.772;2.718;2023-11-21T01:46:24;8.93;;;8.05;;
51459;SDS011;37534;39.772;2.718;2023-11-21T01:48:50;8.70;;;7.90;;
51459;SDS011;37534;39.772;2.718;2023-11-21T01:51:21;9.23;;;8.15;;
51459;SDS011;37534;39.772;2.718;2023-11-21T01:53:47;9.18;;;8.20;;
51459;SDS011;37534;39.772;2.718;2023-11-21T01:56:12;10.50;;;8.75;;
51459;SDS011;37534;39.772;2.718;2023-11-21T01:58:39;14.18;;;9.60;;
51459;SDS011;37534;39.772;2.718;2023-11-21T02:01:06;12.60;;;9.45;;
51459;SDS011;37534;39.772;2.718;2023-11-21T02:03:31;13.98;;;10.15;;
51459;SDS011;37534;39.772;2.718;2023-11-21T02:05:57;12.60;;;9.63;;
51459;SDS011;37534;39.772;2.718;2023-11-21T02:08:23;10.98;;;9.80;;
51459;SDS011;37534;39.772;2.718;2023-11-21T02:10:49;9.77;;;8.98;;
51459;SDS011;37534;39.772;2.718;2023-11-21T02:13:15;13.23;;;9.60;;
51459;SDS011;37534;39.772;2.718;2023-11-21T02:15:41;11.35;;;10.05;;
51459;SDS011;37534;39.772;2.718;2023-11-21T02:18:07;11.18;;;10.23;;
51459;SDS011;37534;39.772;2.718;2023-11-21T02:20:35;11.48;;;10.27;;
51459;SDS011;37534;39.772;2.718;2023-11-21T02:23:02;11.32;;;10.30;;
51459;SDS011;37534;39.772;2.718;2023-11-21T02:25:28;11.68;;;10.48;;
51459;SDS011;37534;39.772;2.718;2023-11-21T02:27:59;12.02;;;10.82;;
51459;SDS011;37534;39.772;2.718;2023-11-21T02:30:26;12.05;;;10.95;;
51459;SDS011;37534;39.772;2.718;2023-11-21T02:32:55;11.80;;;10.70;;
51459;SDS011;37534;39.772;2.718;2023-11-21T02:35:24;13.70;;;11.77;;
51459;SDS011;37534;39.772;2.718;2023-11-21T02:37:53;13.98;;;10.43;;
51459;SDS011;37534;39.772;2.718;2023-11-21T02:40:19;11.30;;;10.07;;
51459;SDS011;37534;39.772;2.718;2023-11-21T02:42:50;10.50;;;9.32;;
51459;SDS011;37534;39.772;2.718;2023-11-21T02:45:16;17.92;;;10.68;;
51459;SDS011;37534;39.772;2.718;2023-11-21T02:47:43;11.65;;;10.50;;
51459;SDS011;37534;39.772;2.718;2023-11-21T02:50:09;11.55;;;9.90;;
51459;SDS011;37534;39.772;2.718;2023-11-21T02:52:35;10.85;;;9.68;;
51459;SDS011;37534;39.772;2.718;2023-11-21T02:55:03;15.13;;;10.60;;
51459;SDS011;37534;39.772;2.718;2023-11-21T02:57:29;12.40;;;8.82;;
51459;SDS011;37534;39.772;2.718;2023-11-21T02:59:55;10.73;;;8.40;;
51459;SDS011;37534;39.772;2.718;2023-11-21T03:02:21;14.82;;;10.63;;
51459;SDS011;37534;39.772;2.718;2023-11-21T03:04:47;12.43;;;9.85;;
51459;SDS011;37534;39.772;2.718;2023-11-21T03:07:17;9.18;;;8.45;;
51459;SDS011;37534;39.772;2.718;2023-11-21T03:09:45;9.90;;;8.80;;
51459;SDS011;37534;39.772;2.718;2023-11-21T03:12:11;11.32;;;9.68;;
51459;SDS011;37534;39.772;2.718;2023-11-21T03:14:41;11.35;;;9.27;;
51459;SDS011;37534;39.772;2.718;2023-11-21T03:17:06;11.13;;;10.02;;
51459;SDS011;37534;39.772;2.718;2023-11-21T03:19:32;10.07;;;8.95;;
51459;SDS011;37534;39.772;2.718;2023-11-21T03:21:58;9.38;;;8.55;;
51459;SDS011;37534;39.772;2.718;2023-11-21T03:24:24;11.98;;;10.68;;
51459;SDS011;37534;39.772;2.718;2023-11-21T03:26:50;15.00;;;10.77;;
51459;SDS011;37534;39.772;2.718;2023-11-21T03:29:16;12.38;;;10.10;;
51459;SDS011;37534;39.772;2.718;2023-11-21T03:31:41;13.13;;;10.57;;
51459;SDS011;37534;39.772;2.718;2023-11-21T03:34:09;15.45;;;10.63;;
51459;SDS011;37534;39.772;2.718;2023-11-21T03:36:36;11.02;;;10.02;;
51459;SDS011;37534;39.772;2.718;2023-11-21T03:39:04;10.32;;;9.43;;
51459;SDS011;37534;39.772;2.718;2023-11-21T03:41:30;10.48;;;9.45;;
51459;SDS011;37534;39.772;2.718;2023-11-21T03:43:55;9.73;;;8.88;;
51459;SDS011;37534;39.772;2.718;2023-11-21T03:46:21;11.13;;;9.52;;
51459;SDS011;37534;39.772;2.718;2023-11-21T03:48:47;9.57;;;8.63;;
51459;SDS011;37534;39.772;2.718;2023-11-21T03:51:12;10.82;;;9.75;;
51459;SDS011;37534;39.772;2.718;2023-11-21T03:53:38;15.77;;;11.68;;
51459;SDS011;37534;39.772;2.718;2023-11-21T03:56:03;14.27;;;10.52;;
51459;SDS011;37534;39.772;2.718;2023-11-21T03:58:30;19.58;;;12.68;;
51459;SDS011;37534;39.772;2.718;2023-11-21T04:00:56;16.90;;;12.68;;
51459;SDS011;37534;39.772;2.718;2023-11-21T04:03:21;15.10;;;11.85;;
51459;SDS011;37534;39.772;2.718;2023-11-21T04:05:47;19.08;;;12.65;;
51459;SDS011;37534;39.772;2.718;2023-11-21T04:08:12;15.15;;;12.63;;
51459;SDS011;37534;39.772;2.718;2023-11-21T04:10:38;13.35;;;11.93;;
51459;SDS011;37534;39.772;2.718;2023-11-21T04:13:04;15.70;;;10.98;;
51459;SDS011;37534;39.772;2.718;2023-11-21T04:15:31;17.05;;;12.45;;
51459;SDS011;37534;39.772;2.718;2023-11-21T04:17:57;17.13;;;10.75;;
51459;SDS011;37534;39.772;2.718;2023-11-21T04:20:23;12.40;;;11.10;;
51459;SDS011;37534;39.772;2.718;2023-11-21T04:22:52;16.60;;;11.82;;
51459;SDS011;37534;39.772;2.718;2023-11-21T04:25:17;11.40;;;10.18;;
51459;SDS011;37534;39.772;2.718;2023-11-21T04:27:44;15.77;;;9.80;;
51459;SDS011;37534;39.772;2.718;2023-11-21T04:30:13;11.80;;;10.63;;
51459;SDS011;37534;39.772;2.718;2023-11-21T04:32:39;10.07;;;9.13;;
51459;SDS011;37534;39.772;2.718;2023-11-21T04:35:05;12.73;;;9.75;;
51459;SDS011;37534;39.772;2.718;2023-11-21T04:37:31;13.50;;;10.73;;
51459;SDS011;37534;39.772;2.718;2023-11-21T04:39:56;11.75;;;10.40;;
51459;SDS011;37534;39.772;2.718;2023-11-21T04:42:22;13.80;;;10.40;;
51459;SDS011;37534;39.772;2.718;2023-11-21T04:44:48;14.75;;;9.20;;
51459;SDS011;37534;39.772;2.718;2023-11-21T04:47:14;11.25;;;9.77;;
51459;SDS011;37534;39.772;2.718;2023-11-21T04:49:43;12.32;;;10.30;;
51459;SDS011;37534;39.772;2.718;2023-11-21T04:52:09;14.57;;;11.10;;
51459;SDS011;37534;39.772;2.718;2023-11-21T04:54:35;11.45;;;10.30;;
51459;SDS011;37534;39.772;2.718;2023-11-21T04:57:01;14.68;;;9.90;;
51459;SDS011;37534;39.772;2.718;2023-11-21T04:59:27;10.80;;;9.80;;
51459;SDS011;37534;39.772;2.718;2023-11-21T05:01:53;10.85;;;9.82;;
51459;SDS011;37534;39.772;2.718;2023-11-21T05:04:19;12.75;;;10.40;;
51459;SDS011;37534;39.772;2.718;2023-11-21T05:06:46;15.10;;;10.55;;
51459;SDS011;37534;39.772;2.718;2023-11-21T05:09:12;8.68;;;7.20;;
51459;SDS011;37534;39.772;2.718;2023-11-21T05:11:38;10.73;;;8.45;;
51459;SDS011;37534;39.772;2.718;2023-11-21T14:10:27;3.35;;;1.60;;
51459;SDS011;37534;39.772;2.718;2023-11-21T14:13:09;2.63;;;2.05;;
51459;SDS011;37534;39.772;2.718;2023-11-21T14:15:41;5.30;;;1.55;;
51459;SDS011;37534;39.772;2.718;2023-11-21T14:18:08;9.73;;;2.35;;
51459;SDS011;37534;39.772;2.718;2023-11-21T14:20:37;10.32;;;1.92;;
51459;SDS011;37534;39.772;2.718;2023-11-21T14:23:04;2.72;;;1.73;;
51459;SDS011;37534;39.772;2.718;2023-11-21T14:25:32;8.82;;;1.92;;
51459;SDS011;37534;39.772;2.718;2023-11-21T14:27:59;9.90;;;2.88;;
51459;SDS011;37534;39.772;2.718;2023-11-21T14:30:25;7.32;;;2.33;;
51459;SDS011;37534;39.772;2.718;2023-11-21T14:32:52;3.88;;;1.40;;
51459;SDS011;37534;39.772;2.718;2023-11-21T14:35:18;7.05;;;1.38;;
51459;SDS011;37534;39.772;2.718;2023-11-21T14:37:43;7.10;;;1.92;;
51459;SDS011;37534;39.772;2.718;2023-11-21T14:40:09;7.10;;;2.35;;
51459;SDS011;37534;39.772;2.718;2023-11-21T14:42:36;17.38;;;1.83;;
51459;SDS011;37534;39.772;2.718;2023-11-21T14:45:04;8.73;;;1.60;;
51459;SDS011;37534;39.772;2.718;2023-11-21T14:47:32;10.38;;;1.60;;
51459;SDS011;37534;39.772;2.718;2023-11-21T14:49:59;6.95;;;3.20;;
51459;SDS011;37534;39.772;2.718;2023-11-21T14:52:37;2.20;;;1.52;;
51459;SDS011;37534;39.772;2.718;2023-11-21T14:55:15;4.47;;;1.90;;
51459;SDS011;37534;39.772;2.718;2023-11-21T14:57:46;4.68;;;1.73;;
51459;SDS011;37534;39.772;2.718;2023-11-21T15:00:21;8.55;;;2.97;;
51459;SDS011;37534;39.772;2.718;2023-11-21T15:03:01;2.95;;;1.52;;
51459;SDS011;37534;39.772;2.718;2023-11-21T15:05:48;3.58;;;1.65;;
51459;SDS011;37534;39.772;2.718;2023-11-21T15:08:36;2.38;;;1.60;;
51459;SDS011;37534;39.772;2.718;2023-11-21T15:11:02;4.53;;;2.00;;
51459;SDS011;37534;39.772;2.718;2023-11-21T15:13:32;18.17;;;4.25;;
51459;SDS011;37534;39.772;2.718;2023-11-21T15:15:58;3.25;;;2.47;;
51459;SDS011;37534;39.772;2.718;2023-11-21T15:18:32;8.48;;;3.00;;
51459;SDS011;37534;39.772;2.718;2023-11-21T15:20:59;5.53;;;2.63;;
51459;SDS011;37534;39.772;2.718;2023-11-21T15:23:25;11.10;;;2.85;;
51459;SDS011;37534;39.772;2.718;2023-11-21T15:25:53;5.03;;;3.22;;
51459;SDS011;37534;39.772;2.718;2023-11-21T15:28:18;7.95;;;2.85;;
51459;SDS011;37534;39.772;2.718;2023-11-21T15:30:44;11.38;;;3.33;;
51459;SDS011;37534;39.772;2.718;2023-11-21T15:33:13;8.43;;;3.65;;
51459;SDS011;37534;39.772;2.718;2023-11-21T15:35:38;4.45;;;1.85;;
51459;SDS011;37534;39.772;2.718;2023-11-21T15:38:06;10.43;;;2.40;;
51459;SDS011;37534;39.772;2.718;2023-11-21T15:40:33;3.83;;;2.63;;
51459;SDS011;37534;39.772;2.718;2023-11-21T15:42:59;4.50;;;2.42;;
51459;SDS011;37534;39.772;2.718;2023-11-21T15:45:25;9.52;;;3.22;;
51459;SDS011;37534;39.772;2.718;2023-11-21T15:47:51;13.68;;;4.65;;
51459;SDS011;37534;39.772;2.718;2023-11-21T15:50:18;6.55;;;4.03;;
51459;SDS011;37534;39.772;2.718;2023-11-21T15:52:44;8.90;;;3.30;;
51459;SDS011;37534;39.772;2.718;2023-11-21T15:55:10;8.77;;;2.28;;
51459;SDS011;37534;39.772;2.718;2023-11-21T15:57:36;13.38;;;2.50;;
51459;SDS011;37534;39.772;2.718;2023-11-21T16:00:02;6.75;;;3.30;;
51459;SDS011;37534;39.772;2.718;2023-11-21T16:02:36;24.13;;;19.05;;
51459;SDS011;37534;39.772;2.718;2023-11-21T16:05:03;13.15;;;7.30;;
51459;SDS011;37534;39.772;2.718;2023-11-21T16:07:30;5.15;;;3.72;;
51459;SDS011;37534;39.772;2.718;2023-11-21T16:09:56;5.53;;;3.78;;
51459;SDS011;37534;39.772;2.718;2023-11-21T16:12:22;9.65;;;4.30;;
51459;SDS011;37534;39.772;2.718;2023-11-21T16:26:03;11.98;;;6.47;;
51459;SDS011;37534;39.772;2.718;2023-11-21T16:29:07;9.85;;;5.85;;
51459;SDS011;37534;39.772;2.718;2023-11-21T16:32:19;9.90;;;6.28;;
51459;SDS011;37534;39.772;2.718;2023-11-21T16:35:36;10.55;;;8.30;;
51459;SDS011;37534;39.772;2.718;2023-11-21T16:38:04;10.25;;;6.93;;
51459;SDS011;37534;39.772;2.718;2023-11-21T16:40:35;11.90;;;6.85;;
51459;SDS011;37534;39.772;2.718;2023-11-21T16:43:02;18.35;;;8.43;;
51459;SDS011;37534;39.772;2.718;2023-11-21T16:45:30;16.25;;;10.18;;
51459;SDS011;37534;39.772;2.718;2023-11-21T16:47:56;20.60;;;9.70;;
51459;SDS011;37534;39.772;2.718;2023-11-21T16:50:22;17.30;;;9.07;;
51459;SDS011;37534;39.772;2.718;2023-11-21T16:52:52;14.70;;;9.75;;
51459;SDS011;37534;39.772;2.718;2023-11-21T16:56:26;12.73;;;8.50;;
51459;SDS011;37534;39.772;2.718;2023-11-21T16:59:08;32.38;;;19.10;;
51459;SDS011;37534;39.772;2.718;2023-11-21T17:01:43;38.15;;;29.20;;
51459;SDS011;37534;39.772;2.718;2023-11-21T17:04:14;22.65;;;15.90;;
51459;SDS011;37534;39.772;2.718;2023-11-21T17:06:42;14.52;;;9.75;;
51459;SDS011;37534;39.772;2.718;2023-11-21T17:09:10;19.80;;;10.77;;
51459;SDS011;37534;39.772;2.718;2023-11-21T17:11:42;13.02;;;8.25;;
51459;SDS011;37534;39.772;2.718;2023-11-21T17:14:08;12.20;;;8.10;;
51459;SDS011;37534;39.772;2.718;2023-11-21T17:16:34;11.07;;;5.75;;
51459;SDS011;37534;39.772;2.718;2023-11-21T17:19:00;18.02;;;14.65;;
51459;SDS011;37534;39.772;2.718;2023-11-21T17:21:28;16.85;;;14.43;;
51459;SDS011;37534;39.772;2.718;2023-11-21T17:23:55;18.17;;;11.30;;
51459;SDS011;37534;39.772;2.718;2023-11-21T17:26:21;11.60;;;9.10;;
51459;SDS011;37534;39.772;2.718;2023-11-21T17:28:48;20.27;;;13.20;;
51459;SDS011;37534;39.772;2.718;2023-11-21T17:31:16;22.15;;;10.15;;
51459;SDS011;37534;39.772;2.718;2023-11-21T17:33:44;19.00;;;9.48;;
51459;SDS011;37534;39.772;2.718;2023-11-21T17:36:10;21.83;;;11.27;;
51459;SDS011;37534;39.772;2.718;2023-11-21T17:38:39;11.88;;;9.88;;
51459;SDS011;37534;39.772;2.718;2023-11-21T17:41:04;10.23;;;8.30;;
51459;SDS011;37534;39.772;2.718;2023-11-21T17:43:30;23.88;;;10.52;;
51459;SDS011;37534;39.772;2.718;2023-11-21T17:46:04;13.95;;;10.50;;
51459;SDS011;37534;39.772;2.718;2023-11-21T17:48:30;14.85;;;8.48;;
51459;SDS011;37534;39.772;2.718;2023-11-21T17:50:55;14.50;;;10.40;;
51459;SDS011;37534;39.772;2.718;2023-11-21T17:53:21;12.20;;;9.02;;
51459;SDS011;37534;39.772;2.718;2023-11-21T17:55:47;15.05;;;10.23;;
51459;SDS011;37534;39.772;2.718;2023-11-21T17:58:13;20.95;;;11.48;;
51459;SDS011;37534;39.772;2.718;2023-11-21T18:00:39;16.65;;;12.45;;
51459;SDS011;37534;39.772;2.718;2023-11-21T18:03:05;19.33;;;13.15;;
51459;SDS011;37534;39.772;2.718;2023-11-21T18:05:30;19.17;;;14.02;;
51459;SDS011;37534;39.772;2.718;2023-11-21T18:07:58;21.08;;;13.80;;
51459;SDS011;37534;39.772;2.718;2023-11-21T18:10:25;20.05;;;10.90;;
51459;SDS011;37534;39.772;2.718;2023-11-21T18:12:51;14.50;;;10.82;;
51459;SDS011;37534;39.772;2.718;2023-11-21T18:15:16;19.15;;;9.95;;
51459;SDS011;37534;39.772;2.718;2023-11-21T18:17:44;8.50;;;6.68;;
51459;SDS011;37534;39.772;2.718;2023-11-21T18:20:10;20.48;;;14.98;;
51459;SDS011;37534;39.772;2.718;2023-11-21T18:22:36;23.38;;;16.63;;
51459;SDS011;37534;39.772;2.718;2023-11-21T18:25:02;25.42;;;16.85;;
51459;SDS011;37534;39.772;2.718;2023-11-21T18:27:29;23.58;;;14.73;;
51459;SDS011;37534;39.772;2.718;2023-11-21T18:29:55;25.52;;;18.80;;
51459;SDS011;37534;39.772;2.718;2023-11-21T18:32:21;22.08;;;17.50;;
51459;SDS011;37534;39.772;2.718;2023-11-21T18:34:48;38.15;;;18.55;;
51459;SDS011;37534;39.772;2.718;2023-11-21T18:37:15;25.52;;;20.60;;
51459;SDS011;37534;39.772;2.718;2023-11-21T18:39:41;36.83;;;19.88;;
51459;SDS011;37534;39.772;2.718;2023-11-21T18:42:07;31.00;;;18.98;;
51459;SDS011;37534;39.772;2.718;2023-11-21T18:44:33;53.08;;;34.90;;
51459;SDS011;37534;39.772;2.718;2023-11-21T18:46:59;33.38;;;21.70;;
51459;SDS011;37534;39.772;2.718;2023-11-21T18:49:25;30.63;;;21.20;;
51459;SDS011;37534;39.772;2.718;2023-11-21T18:51:51;33.53;;;23.35;;
51459;SDS011;37534;39.772;2.718;2023-11-21T18:54:16;33.90;;;21.90;;
51459;SDS011;37534;39.772;2.718;2023-11-21T18:56:42;35.42;;;23.13;;
51459;SDS011;37534;39.772;2.718;2023-11-21T18:59:10;30.48;;;22.80;;
51459;SDS011;37534;39.772;2.718;2023-11-21T19:01:36;22.95;;;18.58;;
51459;SDS011;37534;39.772;2.718;2023-11-21T19:04:03;30.70;;;19.42;;
51459;SDS011;37534;39.772;2.718;2023-11-21T19:06:29;27.55;;;20.38;;
51459;SDS011;37534;39.772;2.718;2023-11-21T19:08:55;25.27;;;19.17;;
51459;SDS011;37534;39.772;2.718;2023-11-21T19:11:21;60.50;;;38.03;;
51459;SDS011;37534;39.772;2.718;2023-11-21T19:13:50;43.58;;;27.33;;
51459;SDS011;37534;39.772;2.718;2023-11-21T19:16:16;27.90;;;17.83;;
51459;SDS011;37534;39.772;2.718;2023-11-21T19:18:41;21.83;;;14.48;;
51459;SDS011;37534;39.772;2.718;2023-11-21T19:21:13;13.88;;;9.23;;
51459;SDS011;37534;39.772;2.718;2023-11-21T19:23:45;9.15;;;8.07;;
51459;SDS011;37534;39.772;2.718;2023-11-21T19:26:11;9.52;;;8.00;;
51459;SDS011;37534;39.772;2.718;2023-11-21T19:28:39;12.05;;;8.40;;
51459;SDS011;37534;39.772;2.718;2023-11-21T19:31:05;12.30;;;10.93;;
51459;SDS011;37534;39.772;2.718;2023-11-21T19:33:32;11.60;;;9.45;;
51459;SDS011;37534;39.772;2.718;2023-11-21T19:35:59;18.17;;;11.68;;
51459;SDS011;37534;39.772;2.718;2023-11-21T19:38:25;39.30;;;28.02;;
51459;SDS011;37534;39.772;2.718;2023-11-21T19:40:51;38.95;;;29.88;;
51459;SDS011;37534;39.772;2.718;2023-11-21T19:43:17;42.70;;;30.50;;
51459;SDS011;37534;39.772;2.718;2023-11-21T19:45:42;39.80;;;28.38;;
51459;SDS011;37534;39.772;2.718;2023-11-21T19:48:08;30.30;;;25.75;;
51459;SDS011;37534;39.772;2.718;2023-11-21T19:50:33;43.83;;;30.65;;
51459;SDS011;37534;39.772;2.718;2023-11-21T19:53:00;44.30;;;28.80;;
51459;SDS011;37534;39.772;2.718;2023-11-21T19:55:26;42.05;;;28.48;;
51459;SDS011;37534;39.772;2.718;2023-11-21T19:57:52;36.80;;;27.27;;
51459;SDS011;37534;39.772;2.718;2023-11-21T20:00:17;35.03;;;26.10;;
51459;SDS011;37534;39.772;2.718;2023-11-21T20:02:43;43.78;;;26.35;;
51459;SDS011;37534;39.772;2.718;2023-11-21T20:05:09;32.25;;;24.30;;
51459;SDS011;37534;39.772;2.718;2023-11-21T20:07:39;43.05;;;28.80;;
51459;SDS011;37534;39.772;2.718;2023-11-21T20:10:06;53.95;;;36.83;;
51459;SDS011;37534;39.772;2.718;2023-11-21T20:12:37;55.22;;;37.50;;
51459;SDS011;37534;39.772;2.718;2023-11-21T20:15:02;48.50;;;34.95;;
51459;SDS011;37534;39.772;2.718;2023-11-21T20:17:29;46.28;;;30.95;;
51459;SDS011;37534;39.772;2.718;2023-11-21T20:19:55;41.85;;;29.88;;
51459;SDS011;37534;39.772;2.718;2023-11-21T20:22:20;42.33;;;29.73;;
51459;SDS011;37534;39.772;2.718;2023-11-21T20:24:46;36.55;;;28.80;;
51459;SDS011;37534;39.772;2.718;2023-11-21T20:27:15;33.15;;;26.90;;
51459;SDS011;37534;39.772;2.718;2023-11-21T20:29:42;40.22;;;28.63;;
51459;SDS011;37534;39.772;2.718;2023-11-21T20:32:09;29.27;;;25.73;;
51459;SDS011;37534;39.772;2.718;2023-11-21T20:34:36;42.25;;;28.58;;
51459;SDS011;37534;39.772;2.718;2023-11-21T20:37:03;38.38;;;27.92;;
51459;SDS011;37534;39.772;2.718;2023-11-21T20:39:29;32.70;;;25.40;;
51459;SDS011;37534;39.772;2.718;2023-11-21T20:41:55;34.97;;;26.92;;
51459;SDS011;37534;39.772;2.718;2023-11-21T20:44:22;38.33;;;26.67;;
51459;SDS011;37534;39.772;2.718;2023-11-21T20:46:48;29.15;;;21.88;;
51459;SDS011;37534;39.772;2.718;2023-11-21T20:49:13;26.50;;;21.17;;
51459;SDS011;37534;39.772;2.718;2023-11-21T20:51:40;24.65;;;20.63;;
51459;SDS011;37534;39.772;2.718;2023-11-21T20:54:06;24.67;;;18.70;;
51459;SDS011;37534;39.772;2.718;2023-11-21T20:56:32;35.17;;;23.95;;
51459;SDS011;37534;39.772;2.718;2023-11-21T20:58:59;27.52;;;23.25;;
51459;SDS011;37534;39.772;2.718;2023-11-21T21:01:31;37.08;;;28.92;;
51459;SDS011;37534;39.772;2.718;2023-11-21T21:03:59;32.08;;;27.52;;
51459;SDS011;37534;39.772;2.718;2023-11-21T21:06:28;37.92;;;29.48;;
51459;SDS011;37534;39.772;2.718;2023-11-21T21:08:54;38.83;;;32.22;;
51459;SDS011;37534;39.772;2.718;2023-11-21T21:11:21;36.55;;;28.75;;
51459;SDS011;37534;39.772;2.718;2023-11-21T21:13:47;40.47;;;31.10;;
51459;SDS011;37534;39.772;2.718;2023-11-21T21:16:13;34.55;;;26.95;;
51459;SDS011;37534;39.772;2.718;2023-11-21T21:18:39;34.33;;;25.77;;
51459;SDS011;37534;39.772;2.718;2023-11-21T21:21:04;46.45;;;35.85;;
51459;SDS011;37534;39.772;2.718;2023-11-21T21:23:30;44.28;;;35.08;;
51459;SDS011;37534;39.772;2.718;2023-11-21T21:25:56;47.80;;;30.63;;
51459;SDS011;37534;39.772;2.718;2023-11-21T21:28:22;36.08;;;27.60;;
51459;SDS011;37534;39.772;2.718;2023-11-21T21:30:48;31.77;;;28.25;;
51459;SDS011;37534;39.772;2.718;2023-11-21T21:33:14;54.90;;;25.45;;
51459;SDS011;37534;39.772;2.718;2023-11-21T21:35:39;38.40;;;28.95;;
51459;SDS011;37534;39.772;2.718;2023-11-21T21:38:05;41.95;;;37.17;;
51459;SDS011;37534;39.772;2.718;2023-11-21T21:40:31;47.92;;;34.47;;
51459;SDS011;37534;39.772;2.718;2023-11-21T21:42:58;42.20;;;31.75;;
51459;SDS011;37534;39.772;2.718;2023-11-21T21:45:25;37.22;;;31.30;;
51459;SDS011;37534;39.772;2.718;2023-11-21T21:47:51;44.63;;;32.58;;
51459;SDS011;37534;39.772;2.718;2023-11-21T21:50:17;77.05;;;51.38;;
51459;SDS011;37534;39.772;2.718;2023-11-21T21:52:44;48.72;;;37.15;;
51459;SDS011;37534;39.772;2.718;2023-11-21T21:55:10;38.97;;;29.33;;
51459;SDS011;37534;39.772;2.718;2023-11-21T21:57:41;34.90;;;23.63;;
51459;SDS011;37534;39.772;2.718;2023-11-21T22:00:10;24.17;;;19.70;;
51459;SDS011;37534;39.772;2.718;2023-11-21T22:02:41;17.42;;;14.38;;
51459;SDS011;37534;39.772;2.718;2023-11-21T22:05:13;30.05;;;19.15;;
51459;SDS011;37534;39.772;2.718;2023-11-21T22:07:39;25.05;;;17.55;;
51459;SDS011;37534;39.772;2.718;2023-11-21T22:10:06;21.27;;;14.43;;
51459;SDS011;37534;39.772;2.718;2023-11-21T22:12:33;27.15;;;16.50;;
51459;SDS011;37534;39.772;2.718;2023-11-21T22:14:59;20.67;;;17.13;;
51459;SDS011;37534;39.772;2.718;2023-11-21T22:17:25;28.55;;;16.42;;
51459;SDS011;37534;39.772;2.718;2023-11-21T22:19:53;17.48;;;15.15;;
51459;SDS011;37534;39.772;2.718;2023-11-21T22:22:18;21.13;;;14.88;;
51459;SDS011;37534;39.772;2.718;2023-11-21T22:24:44;22.08;;;17.08;;
51459;SDS011;37534;39.772;2.718;2023-11-21T22:27:10;33.78;;;20.35;;
51459;SDS011;37534;39.772;2.718;2023-11-21T22:29:36;65.25;;;47.28;;
51459;SDS011;37534;39.772;2.718;2023-11-21T22:32:02;100.97;;;76.78;;
51459;SDS011;37534;39.772;2.718;2023-11-21T22:34:30;46.35;;;35.13;;
51459;SDS011;37534;39.772;2.718;2023-11-21T22:36:55;29.17;;;24.17;;
51459;SDS011;37534;39.772;2.718;2023-11-21T22:39:22;30.02;;;20.30;;
51459;SDS011;37534;39.772;2.718;2023-11-21T22:41:48;37.65;;;22.33;;
51459;SDS011;37534;39.772;2.718;2023-11-21T22:44:15;36.50;;;21.17;;
51459;SDS011;37534;39.772;2.718;2023-11-21T22:46:44;23.58;;;20.77;;
51459;SDS011;37534;39.772;2.718;2023-11-21T22:49:13;28.02;;;20.58;;
51459;SDS011;37534;39.772;2.718;2023-11-21T22:51:39;28.98;;;20.58;;
51459;SDS011;37534;39.772;2.718;2023-11-21T22:54:05;25.38;;;17.73;;
51459;SDS011;37534;39.772;2.718;2023-11-21T22:56:32;29.83;;;18.55;;
51459;SDS011;37534;39.772;2.718;2023-11-21T22:58:58;23.38;;;16.85;;
51459;SDS011;37534;39.772;2.718;2023-11-21T23:01:24;25.23;;;18.40;;
51459;SDS011;37534;39.772;2.718;2023-11-21T23:03:50;25.83;;;17.95;;
51459;SDS011;37534;39.772;2.718;2023-11-21T23:06:16;19.33;;;14.38;;
51459;SDS011;37534;39.772;2.718;2023-11-21T23:08:45;28.05;;;14.38;;
51459;SDS011;37534;39.772;2.718;2023-11-21T23:11:12;31.05;;;14.55;;
51459;SDS011;37534;39.772;2.718;2023-11-21T23:13:38;21.33;;;13.90;;
51459;SDS011;37534;39.772;2.718;2023-11-21T23:16:04;18.63;;;14.60;;
51459;SDS011;37534;39.772;2.718;2023-11-21T23:18:30;15.48;;;12.15;;
51459;SDS011;37534;39.772;2.718;2023-11-21T23:20:57;16.65;;;12.98;;
51459;SDS011;37534;39.772;2.718;2023-11-21T23:23:23;15.30;;;10.38;;
51459;SDS011;37534;39.772;2.718;2023-11-21T23:25:53;13.85;;;8.18;;
51459;SDS011;37534;39.772;2.718;2023-11-21T23:28:23;15.68;;;8.50;;
51459;SDS011;37534;39.772;2.718;2023-11-21T23:30:49;20.05;;;9.85;;
51459;SDS011;37534;39.772;2.718;2023-11-21T23:33:16;12.70;;;9.15;;
51459;SDS011;37534;39.772;2.718;2023-11-21T23:35:42;27.10;;;8.82;;
51459;SDS011;37534;39.772;2.718;2023-11-21T23:38:08;17.05;;;6.88;;
51459;SDS011;37534;39.772;2.718;2023-11-21T23:40:34;7.13;;;6.43;;
51459;SDS011;37534;39.772;2.718;2023-11-21T23:43:00;13.27;;;4.38;;